Terminal Aerodrome Forecast
Issued by NWS

Home | Current Version | Previous Version | Text Only | Print | Product List | Glossary Off
Versions: 1 2 3 4 5 6 7 8 9 10 11 12 13 14 15 16 17

000
FTUS43 KPAH 272340
TAFCGI
TAF
KCGI 272340Z 2800/2824 VRB05KT P6SM VCTS FEW040CB BKN150
      TEMPO 2800/2802 36010G25KT 3SM TSRA BKN035CB
     FM280200 VRB03KT P6SM FEW050 BKN250
     FM280700 00000KT 4SM BR FEW070
      TEMPO 2808/2812 2SM BR
     FM281400 22005KT P6SM SCT050=

USA.gov is the U.S. government's official web portal to all federal, state and local government web resources and services.